createdAt,value
2017-12-21T00:02:26.098Z,2.90
2017-12-21T00:04:54.533Z,2.90
2017-12-21T00:07:22.979Z,2.90
2017-12-21T00:09:51.415Z,2.90
2017-12-21T00:12:19.875Z,2.90
2017-12-21T00:14:48.300Z,2.80
2017-12-21T00:17:16.789Z,2.90
2017-12-21T00:19:45.220Z,2.90
2017-12-21T00:22:13.102Z,3.00
2017-12-21T00:24:41.555Z,2.90
2017-12-21T00:27:10.768Z,2.90
2017-12-21T00:29:39.183Z,2.80
2017-12-21T00:32:07.605Z,2.90
2017-12-21T00:34:36.322Z,2.90
2017-12-21T00:37:04.762Z,2.90
2017-12-21T00:39:32.862Z,2.90
2017-12-21T00:42:01.578Z,2.80
2017-12-21T00:44:30.018Z,2.80
2017-12-21T00:46:59.202Z,2.80
2017-12-21T00:49:27.738Z,2.70
2017-12-21T00:51:56.323Z,2.80
2017-12-21T00:54:24.823Z,2.80
2017-12-21T00:56:53.250Z,2.90
2017-12-21T00:59:22.455Z,3.00
2017-12-21T01:01:51.646Z,3.00
2017-12-21T01:04:20.863Z,2.90
2017-12-21T01:06:48.956Z,2.90
2017-12-21T01:09:17.388Z,2.90
2017-12-21T01:11:45.834Z,2.90
2017-12-21T01:14:14.423Z,2.90
2017-12-21T01:16:42.839Z,2.90
2017-12-21T01:19:11.288Z,2.80
2017-12-21T01:21:39.838Z,2.90
2017-12-21T01:24:08.265Z,2.90
2017-12-21T01:26:36.708Z,2.90
2017-12-21T01:29:05.145Z,2.80
2017-12-21T01:31:33.855Z,2.90
2017-12-21T01:34:03.044Z,2.70
2017-12-21T01:36:31.503Z,2.70
2017-12-21T01:38:59.914Z,2.70
2017-12-21T01:41:28.647Z,2.70
2017-12-21T01:43:57.139Z,2.80
2017-12-21T01:46:25.578Z,2.80
2017-12-21T01:48:53.994Z,2.70
2017-12-21T01:51:22.436Z,2.80
2017-12-21T01:53:51.625Z,2.80
2017-12-21T01:56:20.648Z,2.70
2017-12-21T01:58:49.074Z,2.70
2017-12-21T02:01:16.839Z,2.80
2017-12-21T02:03:45.281Z,2.80
2017-12-21T02:06:13.091Z,2.80
2017-12-21T02:08:41.541Z,2.80
2017-12-21T02:11:09.967Z,2.90
2017-12-21T02:13:40.019Z,2.80
2017-12-21T02:16:08.446Z,2.80
2017-12-21T02:18:36.892Z,2.80
2017-12-21T02:21:04.643Z,2.90
2017-12-21T02:23:32.462Z,2.80
2017-12-21T02:26:00.225Z,2.80
2017-12-21T02:28:28.347Z,2.80
2017-12-21T02:30:57.518Z,2.90
2017-12-21T02:33:25.620Z,2.80
2017-12-21T02:35:53.383Z,2.80
2017-12-21T02:38:21.755Z,2.80
2017-12-21T02:40:51.010Z,2.80
2017-12-21T02:43:18.759Z,2.70
2017-12-21T02:45:47.263Z,2.80
2017-12-21T02:48:15.038Z,2.80
2017-12-21T02:50:43.534Z,2.80
2017-12-21T02:53:11.635Z,2.80
2017-12-21T02:55:39.437Z,2.80
2017-12-21T02:58:07.546Z,2.90
2017-12-21T03:00:35.646Z,2.90
2017-12-21T03:03:03.418Z,2.90
2017-12-21T03:05:31.534Z,2.90
2017-12-21T03:07:59.330Z,2.90
2017-12-21T03:10:27.118Z,2.90
2017-12-21T03:12:56.315Z,2.90
2017-12-21T03:15:25.182Z,2.90
2017-12-21T03:17:53.612Z,2.80
2017-12-21T03:20:21.586Z,2.90
2017-12-21T03:22:49.677Z,2.80
2017-12-21T03:25:17.786Z,2.80
2017-12-21T03:27:46.639Z,2.90
2017-12-21T03:30:15.167Z,2.80
2017-12-21T03:32:43.623Z,2.80
2017-12-21T03:35:11.714Z,2.80
2017-12-21T03:37:40.174Z,2.80
2017-12-21T03:40:08.266Z,2.80
2017-12-21T03:42:36.735Z,2.80
2017-12-21T03:45:04.504Z,2.90
2017-12-21T03:47:33.226Z,2.90
2017-12-21T03:50:02.416Z,3.00
2017-12-21T03:52:31.762Z,2.90
2017-12-21T03:55:00.188Z,2.90
2017-12-21T03:57:28.310Z,2.90
2017-12-21T03:59:56.738Z,2.90
2017-12-21T04:02:25.183Z,2.90
2017-12-21T04:04:53.618Z,2.90
2017-12-21T04:07:22.167Z,3.00
2017-12-21T04:09:50.627Z,3.00
2017-12-21T04:12:19.074Z,3.00
2017-12-21T04:14:48.268Z,3.00
2017-12-21T04:17:17.470Z,3.00
2017-12-21T04:19:46.738Z,2.90
2017-12-21T04:22:15.163Z,2.90
2017-12-21T04:24:43.620Z,2.90
2017-12-21T04:27:12.067Z,3.00
2017-12-21T04:29:40.502Z,3.00
2017-12-21T04:32:09.695Z,3.10
2017-12-21T04:34:38.891Z,3.10
2017-12-21T04:37:07.975Z,3.00
2017-12-21T04:39:36.410Z,2.90
2017-12-21T04:42:04.835Z,3.00
2017-12-21T04:44:33.264Z,2.90
2017-12-21T04:47:01.750Z,2.90
2017-12-21T04:49:30.174Z,3.00
2017-12-21T04:51:58.610Z,3.00
2017-12-21T04:54:27.156Z,3.00
2017-12-21T04:56:55.602Z,3.10
2017-12-21T04:59:24.124Z,3.10
2017-12-21T05:01:53.331Z,3.10
2017-12-21T05:04:22.525Z,3.10
2017-12-21T05:06:51.537Z,3.10
2017-12-21T05:09:20.158Z,3.10
2017-12-21T05:11:48.594Z,3.20
2017-12-21T05:14:17.929Z,3.10
2017-12-21T05:16:46.366Z,3.10
2017-12-21T05:19:15.575Z,3.10
2017-12-21T05:21:44.767Z,3.10
2017-12-21T05:24:13.983Z,3.10
2017-12-21T05:26:43.167Z,3.10
2017-12-21T05:29:12.386Z,3.10
2017-12-21T05:31:40.851Z,3.00
2017-12-21T05:34:10.071Z,3.00
2017-12-21T05:36:38.499Z,3.00
2017-12-21T05:39:06.947Z,3.00
2017-12-21T05:41:35.390Z,3.10
2017-12-21T05:44:03.827Z,3.00
2017-12-21T05:46:32.255Z,3.00
2017-12-21T05:49:01.459Z,2.90
2017-12-21T05:51:30.823Z,3.00
2017-12-21T05:53:58.948Z,2.90
2017-12-21T05:56:28.131Z,2.90
2017-12-21T05:58:57.431Z,2.90
2017-12-21T06:01:25.219Z,2.90
2017-12-21T06:03:53.666Z,2.90
2017-12-21T06:06:22.092Z,2.90
2017-12-21T06:08:50.535Z,2.90
2017-12-21T06:11:19.016Z,2.90
2017-12-21T06:13:47.607Z,2.90
2017-12-21T06:16:16.844Z,2.90
2017-12-21T06:18:45.278Z,2.90
2017-12-21T06:21:13.712Z,2.90
2017-12-21T06:23:42.173Z,2.90
2017-12-21T06:26:10.691Z,2.90
2017-12-21T06:28:39.216Z,2.90
2017-12-21T06:31:07.643Z,2.90
2017-12-21T06:33:36.098Z,3.00
2017-12-21T06:36:05.294Z,3.00
2017-12-21T06:38:34.502Z,3.00
2017-12-21T06:41:03.018Z,3.00
2017-12-21T06:43:31.462Z,3.10
2017-12-21T06:45:59.929Z,3.00
2017-12-21T06:48:29.155Z,3.10
2017-12-21T06:50:57.605Z,3.00
2017-12-21T06:53:26.324Z,3.00
2017-12-21T06:55:55.815Z,3.10
2017-12-21T06:58:25.010Z,3.00
2017-12-21T07:00:54.212Z,3.10
2017-12-21T07:03:23.444Z,3.00
2017-12-21T07:05:52.130Z,3.00
2017-12-21T07:08:20.560Z,3.00
2017-12-21T07:10:49.274Z,3.00
2017-12-21T07:13:18.002Z,3.10
2017-12-21T07:15:46.483Z,3.20
2017-12-21T07:18:14.927Z,3.20
2017-12-21T07:20:44.139Z,3.20
2017-12-21T07:23:12.586Z,3.10
2017-12-21T07:25:40.846Z,3.10
2017-12-21T07:28:09.393Z,3.10
2017-12-21T07:30:37.836Z,3.20
2017-12-21T07:33:06.709Z,3.20
2017-12-21T07:35:35.939Z,3.20
2017-12-21T07:38:05.160Z,3.20
2017-12-21T07:40:33.582Z,3.20
2017-12-21T07:43:02.039Z,3.20
2017-12-21T07:45:30.478Z,3.20
2017-12-21T07:47:59.704Z,3.30
2017-12-21T07:50:28.193Z,3.30
2017-12-21T07:52:56.643Z,3.30
2017-12-21T07:55:25.834Z,3.40
2017-12-21T07:57:54.271Z,3.30
2017-12-21T08:00:22.714Z,3.40
2017-12-21T08:02:51.936Z,3.40
2017-12-21T08:05:20.382Z,3.30
2017-12-21T08:07:49.392Z,3.40
2017-12-21T08:10:18.620Z,3.40
2017-12-21T08:12:47.274Z,3.40
2017-12-21T08:15:16.479Z,3.50
2017-12-21T08:17:45.698Z,3.60
2017-12-21T08:20:14.135Z,3.50
2017-12-21T08:22:42.583Z,3.50
2017-12-21T08:25:11.040Z,3.60
2017-12-21T08:27:39.474Z,3.60
2017-12-21T08:30:07.595Z,3.60
2017-12-21T08:32:36.026Z,3.60
2017-12-21T08:35:04.674Z,3.60
2017-12-21T08:37:33.105Z,3.60
2017-12-21T08:40:01.546Z,3.60
2017-12-21T08:42:29.995Z,3.70
2017-12-21T08:44:58.513Z,3.70
2017-12-21T08:47:26.942Z,3.70
2017-12-21T08:49:56.399Z,3.80
2017-12-21T08:52:24.827Z,3.70
2017-12-21T08:54:54.034Z,3.90
2017-12-21T08:57:22.910Z,3.90
2017-12-21T08:59:51.354Z,3.80
2017-12-21T09:02:19.798Z,4.00
2017-12-21T09:04:48.262Z,4.50
2017-12-21T09:07:17.479Z,4.00
2017-12-21T09:09:45.901Z,4.00
2017-12-21T09:12:14.353Z,3.90
2017-12-21T09:14:42.784Z,4.00
2017-12-21T09:17:11.247Z,4.00
2017-12-21T09:19:39.669Z,4.00
2017-12-21T09:22:08.871Z,4.00
2017-12-21T09:24:38.089Z,4.10
2017-12-21T09:27:06.563Z,4.00
2017-12-21T09:29:35.765Z,4.20
2017-12-21T09:32:04.951Z,4.20
2017-12-21T09:34:34.243Z,4.30
2017-12-21T09:37:02.427Z,4.20
2017-12-21T09:39:31.656Z,4.30
2017-12-21T09:42:00.111Z,4.30
2017-12-21T09:44:29.331Z,4.30
2017-12-21T09:46:57.813Z,4.20
2017-12-21T09:49:26.277Z,4.30
2017-12-21T09:51:55.470Z,4.50
2017-12-21T09:54:24.691Z,4.60
2017-12-21T09:56:53.126Z,4.50
2017-12-21T09:59:21.611Z,4.70
2017-12-21T10:01:50.042Z,4.70
2017-12-21T10:04:18.491Z,4.80
2017-12-21T10:06:47.710Z,4.90
2017-12-21T10:09:16.944Z,5.00
2017-12-21T10:11:45.414Z,4.90
2017-12-21T10:14:13.974Z,5.10
2017-12-21T10:16:43.179Z,5.20
2017-12-21T10:19:11.619Z,5.20
2017-12-21T10:21:40.076Z,5.30
2017-12-21T10:24:08.514Z,5.40
2017-12-21T10:26:37.070Z,5.60
2017-12-21T10:29:05.497Z,5.60
2017-12-21T10:31:33.946Z,5.70
2017-12-21T10:34:02.380Z,5.70
2017-12-21T10:36:30.827Z,5.70
2017-12-21T10:39:00.016Z,5.80
2017-12-21T10:41:29.223Z,5.80
2017-12-21T10:43:58.415Z,6.00
2017-12-21T10:46:27.647Z,5.90
2017-12-21T10:48:56.187Z,5.90
2017-12-21T10:51:24.643Z,5.80
2017-12-21T10:53:53.078Z,5.70
2017-12-21T10:56:22.284Z,5.60
2017-12-21T10:58:50.715Z,5.50
2017-12-21T11:01:19.142Z,5.60
2017-12-21T11:03:47.599Z,5.70
2017-12-21T11:06:16.031Z,5.70
2017-12-21T11:08:44.480Z,5.60
2017-12-21T11:11:13.683Z,5.60
2017-12-21T11:13:42.886Z,5.60
2017-12-21T11:16:11.322Z,5.50
2017-12-21T11:18:39.441Z,5.70
2017-12-21T11:21:08.622Z,5.70
2017-12-21T11:23:37.824Z,5.60
2017-12-21T11:26:07.124Z,5.60
2017-12-21T11:28:36.306Z,5.60
2017-12-21T11:31:04.719Z,5.50
2017-12-21T11:33:33.922Z,5.70
2017-12-21T11:36:02.359Z,5.70
2017-12-21T11:38:30.809Z,5.70
2017-12-21T11:40:59.242Z,5.70
2017-12-21T11:43:27.747Z,5.80
2017-12-21T11:45:56.960Z,5.80
2017-12-21T11:48:25.383Z,5.70
2017-12-21T11:50:53.812Z,5.80
2017-12-21T11:53:22.305Z,5.70
2017-12-21T11:55:50.730Z,5.70
2017-12-21T11:58:19.223Z,5.70
2017-12-21T12:00:47.323Z,5.80
2017-12-21T12:03:16.303Z,5.80
2017-12-21T12:05:44.814Z,5.70
2017-12-21T12:08:13.255Z,5.90
2017-12-21T12:10:41.691Z,6.00
2017-12-21T12:13:10.230Z,6.00
2017-12-21T12:15:38.701Z,5.90
2017-12-21T12:18:07.148Z,6.00
2017-12-21T12:20:35.576Z,6.10
2017-12-21T12:23:04.039Z,6.10
2017-12-21T12:25:32.580Z,6.10
2017-12-21T12:28:01.955Z,6.10
2017-12-21T12:30:31.162Z,6.10
2017-12-21T12:33:00.453Z,6.10
2017-12-21T12:35:29.659Z,6.10
2017-12-21T12:37:58.871Z,6.10
2017-12-21T12:40:27.303Z,6.00
2017-12-21T12:42:55.381Z,6.00
2017-12-21T12:45:23.843Z,5.90
2017-12-21T12:47:51.955Z,5.80
2017-12-21T12:50:20.056Z,5.90
2017-12-21T12:52:48.551Z,5.90
2017-12-21T12:55:18.031Z,5.80
2017-12-21T12:57:47.237Z,5.80
2017-12-21T13:00:16.427Z,5.80
2017-12-21T13:02:45.657Z,5.80
2017-12-21T13:05:14.102Z,5.80
2017-12-21T13:07:43.331Z,5.90
2017-12-21T13:10:11.755Z,5.90
2017-12-21T13:12:40.215Z,5.90
2017-12-21T13:15:08.961Z,5.90
2017-12-21T13:17:38.198Z,5.80
2017-12-21T13:20:06.631Z,5.80
2017-12-21T13:22:35.087Z,5.80
2017-12-21T13:25:03.523Z,5.80
2017-12-21T13:27:31.944Z,5.90
2017-12-21T13:30:00.400Z,5.80
2017-12-21T13:32:28.898Z,5.80
2017-12-21T13:34:57.331Z,5.70
2017-12-21T13:37:26.538Z,5.70
2017-12-21T13:39:55.811Z,5.70
2017-12-21T13:42:24.273Z,5.70
2017-12-21T13:44:52.720Z,5.70
2017-12-21T13:47:21.167Z,5.70
2017-12-21T13:49:49.622Z,5.60
2017-12-21T13:52:18.857Z,5.70
2017-12-21T13:54:48.059Z,5.70
2017-12-21T13:57:16.926Z,5.70
2017-12-21T13:59:45.354Z,5.70
2017-12-21T14:02:13.125Z,5.70
2017-12-21T14:04:41.562Z,5.60
2017-12-21T14:07:11.519Z,5.60
2017-12-21T14:09:39.937Z,5.60
2017-12-21T14:12:08.371Z,5.60
2017-12-21T14:14:37.560Z,5.50
2017-12-21T14:17:06.768Z,5.50
2017-12-21T14:19:35.960Z,5.50
2017-12-21T14:22:05.182Z,5.50
2017-12-21T14:24:33.624Z,5.40
2017-12-21T14:27:02.067Z,5.40
2017-12-21T14:29:30.486Z,5.40
2017-12-21T14:31:58.918Z,5.40
2017-12-21T14:34:27.330Z,5.40
2017-12-21T14:36:55.897Z,5.40
2017-12-21T14:39:24.324Z,5.40
2017-12-21T14:41:53.539Z,5.40
2017-12-21T14:44:21.975Z,5.40
2017-12-21T14:46:50.695Z,5.40
2017-12-21T14:49:19.884Z,5.40
2017-12-21T14:51:48.382Z,5.40
2017-12-21T14:54:17.593Z,5.40
2017-12-21T14:56:46.101Z,5.30
2017-12-21T14:59:14.548Z,5.30
2017-12-21T15:01:42.984Z,5.30
2017-12-21T15:04:11.432Z,5.40
2017-12-21T15:06:39.858Z,5.40
2017-12-21T15:09:08.300Z,5.40
2017-12-21T15:11:36.735Z,5.40
2017-12-21T15:14:05.174Z,5.30
2017-12-21T15:16:33.608Z,5.40
2017-12-21T15:19:02.820Z,5.30
2017-12-21T15:21:32.103Z,5.30
2017-12-21T15:24:00.578Z,5.30
2017-12-21T15:26:28.715Z,5.30
2017-12-21T15:28:57.224Z,5.30
2017-12-21T15:31:25.682Z,5.20
2017-12-21T15:33:54.146Z,5.20
2017-12-21T15:36:22.682Z,5.20
2017-12-21T15:38:51.183Z,5.20
2017-12-21T15:41:20.371Z,5.20
2017-12-21T15:43:49.638Z,5.10
2017-12-21T15:46:18.166Z,5.10
2017-12-21T15:48:47.413Z,5.20
2017-12-21T15:51:15.857Z,5.10
2017-12-21T15:53:45.065Z,5.10
2017-12-21T15:56:13.508Z,5.10
2017-12-21T15:58:41.978Z,5.10
2017-12-21T16:01:10.411Z,5.10
2017-12-21T16:03:38.855Z,5.10
2017-12-21T16:06:07.430Z,5.10
2017-12-21T16:08:35.203Z,5.00
2017-12-21T16:11:03.043Z,5.00
2017-12-21T16:13:31.165Z,5.10
2017-12-21T16:16:00.356Z,5.10
2017-12-21T16:18:29.574Z,5.10
2017-12-21T16:20:58.774Z,5.20
2017-12-21T16:23:27.979Z,5.10
2017-12-21T16:25:56.438Z,5.10
2017-12-21T16:28:26.403Z,5.00
2017-12-21T16:30:54.901Z,5.00
2017-12-21T16:33:23.332Z,5.00
2017-12-21T16:35:52.699Z,5.00
2017-12-21T16:38:21.167Z,5.00
2017-12-21T16:40:49.607Z,5.00
2017-12-21T16:43:18.811Z,5.10
2017-12-21T16:45:48.016Z,5.10
2017-12-21T16:48:16.436Z,5.00
2017-12-21T16:50:44.913Z,5.10
2017-12-21T16:53:14.272Z,5.00
2017-12-21T16:55:43.466Z,5.00
2017-12-21T16:58:12.689Z,5.00
2017-12-21T17:00:40.783Z,4.90
2017-12-21T17:03:09.224Z,5.00
2017-12-21T17:05:38.412Z,5.00
2017-12-21T17:08:07.618Z,5.10
2017-12-21T17:10:36.803Z,5.00
2017-12-21T17:13:05.242Z,5.00
2017-12-21T17:15:33.668Z,5.00
2017-12-21T17:18:02.879Z,5.00
2017-12-21T17:20:31.727Z,5.10
2017-12-21T17:23:00.180Z,5.00
2017-12-21T17:25:28.426Z,5.00
2017-12-21T17:27:57.311Z,5.00
2017-12-21T17:30:26.522Z,5.10
2017-12-21T17:32:55.065Z,5.00
2017-12-21T17:35:23.504Z,5.10
2017-12-21T17:37:51.948Z,5.10
2017-12-21T17:40:20.394Z,5.10
2017-12-21T17:42:48.504Z,5.10
2017-12-21T17:45:16.964Z,5.20
2017-12-21T17:47:45.392Z,5.10
2017-12-21T17:50:14.608Z,5.20
2017-12-21T17:52:43.060Z,5.10
2017-12-21T17:55:12.252Z,5.20
2017-12-21T17:57:40.724Z,5.20
2017-12-21T18:00:08.504Z,5.20
2017-12-21T18:02:37.704Z,5.10
2017-12-21T18:05:06.922Z,5.10
2017-12-21T18:07:35.035Z,5.10
2017-12-21T18:10:03.495Z,5.10
2017-12-21T18:12:32.155Z,5.20
2017-12-21T18:15:01.343Z,5.10
2017-12-21T18:17:29.818Z,5.10
2017-12-21T18:19:58.250Z,5.10
2017-12-21T18:22:26.365Z,5.10
2017-12-21T18:24:54.988Z,5.10
2017-12-21T18:27:24.211Z,5.10
2017-12-21T18:29:52.647Z,5.00
2017-12-21T18:32:21.871Z,5.10
2017-12-21T18:34:50.302Z,5.10
2017-12-21T18:37:18.766Z,5.10
2017-12-21T18:39:47.188Z,5.10
2017-12-21T18:42:15.413Z,5.10
2017-12-21T18:44:43.860Z,5.10
2017-12-21T18:47:13.150Z,5.20
2017-12-21T18:49:41.271Z,5.10
2017-12-21T18:52:09.697Z,5.20
2017-12-21T18:54:37.507Z,5.20
2017-12-21T18:57:05.620Z,5.20
2017-12-21T18:59:34.068Z,5.20
2017-12-21T19:02:02.530Z,5.20
2017-12-21T19:04:31.384Z,5.20
2017-12-21T19:06:59.861Z,5.20
2017-12-21T19:09:28.300Z,5.20
2017-12-21T19:11:56.778Z,5.20
2017-12-21T19:14:25.227Z,5.20
2017-12-21T19:16:53.666Z,5.30
2017-12-21T19:19:22.142Z,5.20
2017-12-21T19:21:51.553Z,5.20
2017-12-21T19:24:19.996Z,5.20
2017-12-21T19:26:48.879Z,5.20
2017-12-21T19:29:18.063Z,5.20
2017-12-21T19:31:46.488Z,5.20
2017-12-21T19:34:14.931Z,5.20
2017-12-21T19:36:44.118Z,5.10
2017-12-21T19:39:12.214Z,5.10
2017-12-21T19:41:41.430Z,5.10
2017-12-21T19:44:09.867Z,5.10
2017-12-21T19:46:38.315Z,5.10
2017-12-21T19:49:06.419Z,5.10
2017-12-21T19:51:34.867Z,5.20
2017-12-21T19:54:03.323Z,5.20
2017-12-21T19:56:32.528Z,5.20
2017-12-21T19:59:00.950Z,5.20
2017-12-21T20:01:29.391Z,5.10
2017-12-21T20:03:57.851Z,5.10
2017-12-21T20:06:27.047Z,5.10
2017-12-21T20:08:55.520Z,5.10
2017-12-21T20:11:26.181Z,5.10
2017-12-21T20:13:54.799Z,5.10
2017-12-21T20:16:23.219Z,5.10
2017-12-21T20:18:51.730Z,5.10
2017-12-21T20:21:20.914Z,5.10
2017-12-21T20:23:49.412Z,5.00
2017-12-21T20:26:18.616Z,5.20
2017-12-21T20:28:47.857Z,5.10
2017-12-21T20:31:16.299Z,5.10
2017-12-21T20:33:45.496Z,5.10
2017-12-21T20:36:14.726Z,5.10
2017-12-21T20:38:43.201Z,5.10
2017-12-21T20:41:11.758Z,5.10
2017-12-21T20:43:40.972Z,5.10
2017-12-21T20:46:09.409Z,5.10
2017-12-21T20:48:37.859Z,5.20
2017-12-21T20:51:05.952Z,5.20
2017-12-21T20:53:34.401Z,5.20
2017-12-21T20:56:02.855Z,5.20
2017-12-21T20:58:32.058Z,5.10
2017-12-21T21:01:00.599Z,5.10
2017-12-21T21:03:29.049Z,5.10
2017-12-21T21:05:57.577Z,5.20
2017-12-21T21:08:26.901Z,5.10
2017-12-21T21:10:56.124Z,5.10
2017-12-21T21:13:24.567Z,5.00
2017-12-21T21:15:53.009Z,5.10
2017-12-21T21:18:21.118Z,5.10
2017-12-21T21:20:48.902Z,5.20
2017-12-21T21:23:18.102Z,5.20
2017-12-21T21:25:47.323Z,5.20
2017-12-21T21:28:15.764Z,5.20
2017-12-21T21:30:44.205Z,5.20
2017-12-21T21:33:12.635Z,5.20
2017-12-21T21:35:41.107Z,5.20
2017-12-21T21:38:09.532Z,5.20
2017-12-21T21:40:37.980Z,5.20
2017-12-21T21:43:07.206Z,5.30
2017-12-21T21:45:35.325Z,5.20
2017-12-21T21:48:03.755Z,5.20
2017-12-21T21:50:32.956Z,5.20
2017-12-21T21:53:01.509Z,5.30
2017-12-21T21:55:29.928Z,5.20
2017-12-21T21:57:58.134Z,5.20
2017-12-21T22:00:25.900Z,5.20
2017-12-21T22:02:54.343Z,5.20
2017-12-21T22:05:23.203Z,5.30
2017-12-21T22:07:51.725Z,5.30
2017-12-21T22:10:20.150Z,5.20
2017-12-21T22:12:48.271Z,5.30
2017-12-21T22:15:17.463Z,5.30
2017-12-21T22:17:46.363Z,5.20
2017-12-21T22:20:15.546Z,5.20
2017-12-21T22:22:44.003Z,5.20
2017-12-21T22:25:12.445Z,5.20
2017-12-21T22:27:40.892Z,5.20
2017-12-21T22:30:09.014Z,5.20
2017-12-21T22:32:37.460Z,5.20
2017-12-21T22:35:06.705Z,5.20
2017-12-21T22:37:35.127Z,5.20
2017-12-21T22:40:03.267Z,5.20
2017-12-21T22:42:31.720Z,5.20
2017-12-21T22:45:00.172Z,5.30
2017-12-21T22:47:29.420Z,5.20
2017-12-21T22:49:57.900Z,5.10
2017-12-21T22:52:26.343Z,5.20
2017-12-21T22:54:55.216Z,5.20
2017-12-21T22:57:24.438Z,5.20
2017-12-21T22:59:53.741Z,5.20
2017-12-21T23:02:22.592Z,5.20
2017-12-21T23:04:51.047Z,5.10
2017-12-21T23:07:19.479Z,5.20
2017-12-21T23:09:48.674Z,5.10
2017-12-21T23:12:17.127Z,5.10
2017-12-21T23:14:45.591Z,5.10
2017-12-21T23:17:13.866Z,5.10
2017-12-21T23:19:42.355Z,5.10
2017-12-21T23:22:10.791Z,5.20
2017-12-21T23:24:39.991Z,5.20
2017-12-21T23:27:09.209Z,5.20
2017-12-21T23:29:38.410Z,5.30
2017-12-21T23:32:06.840Z,5.20
2017-12-21T23:34:35.491Z,5.30
2017-12-21T23:37:03.971Z,5.30
2017-12-21T23:39:32.426Z,5.30
2017-12-21T23:42:01.638Z,5.30
2017-12-21T23:44:30.071Z,5.20
2017-12-21T23:46:58.500Z,5.30
2017-12-21T23:49:26.955Z,5.30
2017-12-21T23:51:54.699Z,5.20
2017-12-21T23:54:23.158Z,5.30
2017-12-21T23:56:50.918Z,5.30
2017-12-21T23:59:19.363Z,5.30
